Radium Springs, Georgia
Current Conditions -  °F | °C
As of 7:06 PM on Tuesday 25 Nov 2014 (Local Time) from KABY Reporting Station
Moderate Rain Moderate Rain  
Wind Chill: 44°   Ceiling: 7500
Heat Index: 48°   Visibility: 5mi
Dew Point: 45°   Wind: 9mph
Humidity: 87%   Direction: 340°NNW
Pressure: 30.08"   Gusts: NA
Location:  31.464°N, 83.985°W
Report Text: KABY 260006Z 34008KT 5SM RA FEW033 SCT055 OVC075 09/07 A3008 RMK AO2 P0003 $
Loading
Personal Weather Stations






























Interactive Weather Map New forecast layout! Learn more

10-Day Weather Forecast

Advertisements
Track Severe Weather on mobile